sensor_id;sensor_type;location;lat;lon;timestamp;temperature;humidity
52058;DHT22;38063;53.210;6.504;2024-03-07T00:02:19;4.80;99.90
52058;DHT22;38063;53.210;6.504;2024-03-07T00:04:45;4.80;99.90
52058;DHT22;38063;53.210;6.504;2024-03-07T00:07:10;4.80;99.90
52058;DHT22;38063;53.210;6.504;2024-03-07T00:09:36;4.80;99.90
52058;DHT22;38063;53.210;6.504;2024-03-07T00:12:02;4.80;99.90
52058;DHT22;38063;53.210;6.504;2024-03-07T00:14:28;4.80;99.90
52058;DHT22;38063;53.210;6.504;2024-03-07T00:16:58;4.70;99.90
52058;DHT22;38063;53.210;6.504;2024-03-07T00:19:25;4.70;99.90
52058;DHT22;38063;53.210;6.504;2024-03-07T00:21:53;4.70;99.90
52058;DHT22;38063;53.210;6.504;2024-03-07T00:24:22;4.70;99.90
52058;DHT22;38063;53.210;6.504;2024-03-07T00:26:49;4.70;99.90
52058;DHT22;38063;53.210;6.504;2024-03-07T00:29:18;4.60;99.90
52058;DHT22;38063;53.210;6.504;2024-03-07T00:31:44;4.60;99.90
52058;DHT22;38063;53.210;6.504;2024-03-07T00:34:12;4.60;99.90
52058;DHT22;38063;53.210;6.504;2024-03-07T00:36:40;4.60;99.90
52058;DHT22;38063;53.210;6.504;2024-03-07T00:39:06;4.60;99.90
52058;DHT22;38063;53.210;6.504;2024-03-07T00:41:34;4.60;99.90
52058;DHT22;38063;53.210;6.504;2024-03-07T00:44:00;4.60;99.90
52058;DHT22;38063;53.210;6.504;2024-03-07T00:46:25;4.60;99.90
52058;DHT22;38063;53.210;6.504;2024-03-07T00:48:51;4.60;99.90
52058;DHT22;38063;53.210;6.504;2024-03-07T00:51:17;4.50;99.90
52058;DHT22;38063;53.210;6.504;2024-03-07T00:53:42;4.50;99.90
52058;DHT22;38063;53.210;6.504;2024-03-07T00:56:08;4.90;99.90
52058;DHT22;38063;53.210;6.504;2024-03-07T00:58:34;4.50;99.90
52058;DHT22;38063;53.210;6.504;2024-03-07T01:01:01;4.50;99.90
52058;DHT22;38063;53.210;6.504;2024-03-07T01:03:26;4.50;99.90
52058;DHT22;38063;53.210;6.504;2024-03-07T01:05:52;4.50;99.90
52058;DHT22;38063;53.210;6.504;2024-03-07T01:08:18;4.50;99.90
52058;DHT22;38063;53.210;6.504;2024-03-07T01:10:44;4.60;99.90
52058;DHT22;38063;53.210;6.504;2024-03-07T01:13:09;4.50;99.90
52058;DHT22;38063;53.210;6.504;2024-03-07T01:15:47;4.40;99.90
52058;DHT22;38063;53.210;6.504;2024-03-07T01:18:14;4.40;99.90
52058;DHT22;38063;53.210;6.504;2024-03-07T01:20:40;4.40;99.90
52058;DHT22;38063;53.210;6.504;2024-03-07T01:23:06;4.40;99.90
52058;DHT22;38063;53.210;6.504;2024-03-07T01:25:33;4.30;99.90
52058;DHT22;38063;53.210;6.504;2024-03-07T01:28:02;4.30;99.90
52058;DHT22;38063;53.210;6.504;2024-03-07T01:30:29;4.30;99.90
52058;DHT22;38063;53.210;6.504;2024-03-07T01:32:55;4.30;99.90
52058;DHT22;38063;53.210;6.504;2024-03-07T01:35:21;4.20;99.90
52058;DHT22;38063;53.210;6.504;2024-03-07T01:37:46;4.80;99.90
52058;DHT22;38063;53.210;6.504;2024-03-07T01:40:12;4.10;99.90
52058;DHT22;38063;53.210;6.504;2024-03-07T01:42:40;4.10;99.90
52058;DHT22;38063;53.210;6.504;2024-03-07T01:45:06;4.10;99.90
52058;DHT22;38063;53.210;6.504;2024-03-07T01:47:34;4.00;99.90
52058;DHT22;38063;53.210;6.504;2024-03-07T01:50:02;4.00;99.90
52058;DHT22;38063;53.210;6.504;2024-03-07T01:52:29;4.00;99.90
52058;DHT22;38063;53.210;6.504;2024-03-07T01:54:56;4.10;99.90
52058;DHT22;38063;53.210;6.504;2024-03-07T01:57:22;3.90;99.90
52058;DHT22;38063;53.210;6.504;2024-03-07T01:59:48;3.80;99.90
52058;DHT22;38063;53.210;6.504;2024-03-07T02:02:16;3.80;99.90
52058;DHT22;38063;53.210;6.504;2024-03-07T02:04:43;3.80;99.90
52058;DHT22;38063;53.210;6.504;2024-03-07T02:07:09;3.70;99.90
52058;DHT22;38063;53.210;6.504;2024-03-07T02:09:37;3.70;99.90
52058;DHT22;38063;53.210;6.504;2024-03-07T02:12:03;3.70;99.90
52058;DHT22;38063;53.210;6.504;2024-03-07T02:14:29;3.70;99.90
52058;DHT22;38063;53.210;6.504;2024-03-07T02:16:55;3.60;99.90
52058;DHT22;38063;53.210;6.504;2024-03-07T02:19:24;3.60;99.90
52058;DHT22;38063;53.210;6.504;2024-03-07T02:21:50;3.50;99.90
52058;DHT22;38063;53.210;6.504;2024-03-07T02:24:16;3.70;99.90
52058;DHT22;38063;53.210;6.504;2024-03-07T02:26:42;3.50;99.90
52058;DHT22;38063;53.210;6.504;2024-03-07T02:29:08;3.40;99.90
52058;DHT22;38063;53.210;6.504;2024-03-07T02:31:33;3.40;99.90
52058;DHT22;38063;53.210;6.504;2024-03-07T02:34:05;4.10;99.90
52058;DHT22;38063;53.210;6.504;2024-03-07T02:36:33;3.30;99.90
52058;DHT22;38063;53.210;6.504;2024-03-07T02:38:59;3.30;99.90
52058;DHT22;38063;53.210;6.504;2024-03-07T02:41:25;3.60;99.90
52058;DHT22;38063;53.210;6.504;2024-03-07T02:43:52;3.80;99.90
52058;DHT22;38063;53.210;6.504;2024-03-07T02:46:18;3.20;99.90
52058;DHT22;38063;53.210;6.504;2024-03-07T02:48:44;3.20;99.90
52058;DHT22;38063;53.210;6.504;2024-03-07T02:51:10;3.80;99.90
52058;DHT22;38063;53.210;6.504;2024-03-07T02:53:37;3.30;99.90
52058;DHT22;38063;53.210;6.504;2024-03-07T02:56:04;3.30;99.90
52058;DHT22;38063;53.210;6.504;2024-03-07T02:58:33;3.10;99.90
52058;DHT22;38063;53.210;6.504;2024-03-07T03:01:00;3.10;99.90
52058;DHT22;38063;53.210;6.504;2024-03-07T03:03:26;3.10;99.90
52058;DHT22;38063;53.210;6.504;2024-03-07T03:05:52;3.10;99.90
52058;DHT22;38063;53.210;6.504;2024-03-07T03:08:18;3.10;99.90
52058;DHT22;38063;53.210;6.504;2024-03-07T03:10:43;3.00;99.90
52058;DHT22;38063;53.210;6.504;2024-03-07T03:13:09;3.00;99.90
52058;DHT22;38063;53.210;6.504;2024-03-07T03:15:36;3.70;99.90
52058;DHT22;38063;53.210;6.504;2024-03-07T03:18:04;3.00;99.90
52058;DHT22;38063;53.210;6.504;2024-03-07T03:20:31;2.90;99.90
52058;DHT22;38063;53.210;6.504;2024-03-07T03:23:00;2.90;99.90
52058;DHT22;38063;53.210;6.504;2024-03-07T03:25:28;2.90;99.90
52058;DHT22;38063;53.210;6.504;2024-03-07T03:27:54;3.40;99.90
52058;DHT22;38063;53.210;6.504;2024-03-07T03:30:19;3.30;99.90
52058;DHT22;38063;53.210;6.504;2024-03-07T03:32:46;2.90;99.90
52058;DHT22;38063;53.210;6.504;2024-03-07T03:35:12;2.90;99.90
52058;DHT22;38063;53.210;6.504;2024-03-07T03:37:43;2.90;99.90
52058;DHT22;38063;53.210;6.504;2024-03-07T03:40:10;3.20;99.90
52058;DHT22;38063;53.210;6.504;2024-03-07T03:42:37;2.80;99.90
52058;DHT22;38063;53.210;6.504;2024-03-07T03:45:07;3.30;99.90
52058;DHT22;38063;53.210;6.504;2024-03-07T03:47:36;2.80;99.90
52058;DHT22;38063;53.210;6.504;2024-03-07T03:50:07;2.80;99.90
52058;DHT22;38063;53.210;6.504;2024-03-07T03:52:33;2.80;99.90
52058;DHT22;38063;53.210;6.504;2024-03-07T03:55:00;2.80;99.90
52058;DHT22;38063;53.210;6.504;2024-03-07T03:57:28;2.70;99.90
52058;DHT22;38063;53.210;6.504;2024-03-07T03:59:54;2.70;99.90
52058;DHT22;38063;53.210;6.504;2024-03-07T04:02:20;2.80;99.90
52058;DHT22;38063;53.210;6.504;2024-03-07T04:04:51;2.70;99.90
52058;DHT22;38063;53.210;6.504;2024-03-07T04:07:20;2.70;99.90
52058;DHT22;38063;53.210;6.504;2024-03-07T04:09:46;2.70;99.90
52058;DHT22;38063;53.210;6.504;2024-03-07T04:12:13;2.70;99.90
52058;DHT22;38063;53.210;6.504;2024-03-07T04:14:43;3.40;99.90
52058;DHT22;38063;53.210;6.504;2024-03-07T04:17:09;2.70;99.90
52058;DHT22;38063;53.210;6.504;2024-03-07T04:19:39;2.90;99.90
52058;DHT22;38063;53.210;6.504;2024-03-07T04:22:04;2.70;99.90
52058;DHT22;38063;53.210;6.504;2024-03-07T04:24:33;2.60;99.90
52058;DHT22;38063;53.210;6.504;2024-03-07T04:27:00;2.90;99.90
52058;DHT22;38063;53.210;6.504;2024-03-07T04:29:26;3.20;99.90
52058;DHT22;38063;53.210;6.504;2024-03-07T04:31:52;2.50;99.90
52058;DHT22;38063;53.210;6.504;2024-03-07T04:34:18;2.50;99.90
52058;DHT22;38063;53.210;6.504;2024-03-07T04:36:44;2.50;99.90
52058;DHT22;38063;53.210;6.504;2024-03-07T04:39:10;2.50;99.90
52058;DHT22;38063;53.210;6.504;2024-03-07T04:41:54;2.50;99.90
52058;DHT22;38063;53.210;6.504;2024-03-07T04:44:20;2.50;99.90
52058;DHT22;38063;53.210;6.504;2024-03-07T04:46:50;2.60;99.90
52058;DHT22;38063;53.210;6.504;2024-03-07T04:49:24;2.30;99.90
52058;DHT22;38063;53.210;6.504;2024-03-07T04:51:55;2.30;99.90
52058;DHT22;38063;53.210;6.504;2024-03-07T04:54:21;2.30;99.90
52058;DHT22;38063;53.210;6.504;2024-03-07T04:56:49;2.30;99.90
52058;DHT22;38063;53.210;6.504;2024-03-07T04:59:16;2.30;99.90
52058;DHT22;38063;53.210;6.504;2024-03-07T05:01:42;2.50;99.90
52058;DHT22;38063;53.210;6.504;2024-03-07T05:04:09;2.20;99.90
52058;DHT22;38063;53.210;6.504;2024-03-07T05:06:35;2.40;99.90
52058;DHT22;38063;53.210;6.504;2024-03-07T05:09:02;2.20;99.90
52058;DHT22;38063;53.210;6.504;2024-03-07T05:11:29;2.10;99.90
52058;DHT22;38063;53.210;6.504;2024-03-07T05:13:55;3.30;99.90
52058;DHT22;38063;53.210;6.504;2024-03-07T05:16:21;2.30;99.90
52058;DHT22;38063;53.210;6.504;2024-03-07T05:18:46;2.00;99.90
52058;DHT22;38063;53.210;6.504;2024-03-07T05:21:12;2.00;99.90
52058;DHT22;38063;53.210;6.504;2024-03-07T05:23:57;2.00;99.90
52058;DHT22;38063;53.210;6.504;2024-03-07T05:26:23;2.00;99.90
52058;DHT22;38063;53.210;6.504;2024-03-07T05:28:49;1.90;99.90
52058;DHT22;38063;53.210;6.504;2024-03-07T05:31:15;1.90;99.90
52058;DHT22;38063;53.210;6.504;2024-03-07T05:33:52;3.00;99.90
52058;DHT22;38063;53.210;6.504;2024-03-07T05:36:18;1.90;99.90
52058;DHT22;38063;53.210;6.504;2024-03-07T05:38:44;1.90;99.90
52058;DHT22;38063;53.210;6.504;2024-03-07T05:41:13;1.90;99.90
52058;DHT22;38063;53.210;6.504;2024-03-07T05:43:39;1.80;99.90
52058;DHT22;38063;53.210;6.504;2024-03-07T05:46:05;1.80;99.90
52058;DHT22;38063;53.210;6.504;2024-03-07T05:48:33;1.80;99.90
52058;DHT22;38063;53.210;6.504;2024-03-07T05:50:59;2.00;99.90
52058;DHT22;38063;53.210;6.504;2024-03-07T05:53:25;1.80;99.90
52058;DHT22;38063;53.210;6.504;2024-03-07T05:55:51;1.80;99.90
52058;DHT22;38063;53.210;6.504;2024-03-07T05:58:17;1.90;99.90
52058;DHT22;38063;53.210;6.504;2024-03-07T06:00:45;1.70;99.90
52058;DHT22;38063;53.210;6.504;2024-03-07T06:03:16;1.80;99.90
52058;DHT22;38063;53.210;6.504;2024-03-07T06:05:43;1.70;99.90
52058;DHT22;38063;53.210;6.504;2024-03-07T06:08:11;1.70;99.90
52058;DHT22;38063;53.210;6.504;2024-03-07T06:10:37;1.70;99.90
52058;DHT22;38063;53.210;6.504;2024-03-07T06:13:05;1.60;99.90
52058;DHT22;38063;53.210;6.504;2024-03-07T06:15:31;1.70;99.90
52058;DHT22;38063;53.210;6.504;2024-03-07T06:17:57;1.60;99.90
52058;DHT22;38063;53.210;6.504;2024-03-07T06:20:22;1.60;99.90
52058;DHT22;38063;53.210;6.504;2024-03-07T06:22:49;1.60;99.90
52058;DHT22;38063;53.210;6.504;2024-03-07T06:25:20;1.60;99.90
52058;DHT22;38063;53.210;6.504;2024-03-07T06:28:00;1.60;99.90
52058;DHT22;38063;53.210;6.504;2024-03-07T06:30:37;1.50;99.90
52058;DHT22;38063;53.210;6.504;2024-03-07T06:33:04;1.50;99.90
52058;DHT22;38063;53.210;6.504;2024-03-07T06:35:29;1.50;99.90
52058;DHT22;38063;53.210;6.504;2024-03-07T06:37:55;1.50;99.90
52058;DHT22;38063;53.210;6.504;2024-03-07T06:40:21;1.50;99.90
52058;DHT22;38063;53.210;6.504;2024-03-07T06:42:48;1.50;99.90
52058;DHT22;38063;53.210;6.504;2024-03-07T06:45:14;1.50;99.90
52058;DHT22;38063;53.210;6.504;2024-03-07T06:47:41;1.50;99.90
52058;DHT22;38063;53.210;6.504;2024-03-07T06:50:07;1.50;99.90
52058;DHT22;38063;53.210;6.504;2024-03-07T06:52:35;1.50;99.90
52058;DHT22;38063;53.210;6.504;2024-03-07T06:55:02;1.50;99.90
52058;DHT22;38063;53.210;6.504;2024-03-07T06:57:33;1.40;99.90
52058;DHT22;38063;53.210;6.504;2024-03-07T06:59:59;1.80;99.90
52058;DHT22;38063;53.210;6.504;2024-03-07T07:02:25;1.40;99.90
52058;DHT22;38063;53.210;6.504;2024-03-07T07:04:53;1.40;99.90
52058;DHT22;38063;53.210;6.504;2024-03-07T07:07:19;1.40;99.90
52058;DHT22;38063;53.210;6.504;2024-03-07T07:09:45;1.40;99.90
52058;DHT22;38063;53.210;6.504;2024-03-07T07:12:11;1.40;99.90
52058;DHT22;38063;53.210;6.504;2024-03-07T07:14:37;1.40;99.90
52058;DHT22;38063;53.210;6.504;2024-03-07T07:17:04;1.40;99.90
52058;DHT22;38063;53.210;6.504;2024-03-07T07:19:30;1.40;99.90
52058;DHT22;38063;53.210;6.504;2024-03-07T07:21:56;1.40;99.90
52058;DHT22;38063;53.210;6.504;2024-03-07T07:24:22;1.80;99.90
52058;DHT22;38063;53.210;6.504;2024-03-07T07:26:50;1.40;99.90
52058;DHT22;38063;53.210;6.504;2024-03-07T07:29:16;1.40;99.90
52058;DHT22;38063;53.210;6.504;2024-03-07T07:31:42;1.40;99.90
52058;DHT22;38063;53.210;6.504;2024-03-07T07:34:07;1.40;99.90
52058;DHT22;38063;53.210;6.504;2024-03-07T07:36:33;1.90;99.90
52058;DHT22;38063;53.210;6.504;2024-03-07T07:38:59;1.60;99.90
52058;DHT22;38063;53.210;6.504;2024-03-07T07:41:25;1.40;99.90
52058;DHT22;38063;53.210;6.504;2024-03-07T07:43:51;1.40;99.90
52058;DHT22;38063;53.210;6.504;2024-03-07T07:46:17;1.30;99.90
52058;DHT22;38063;53.210;6.504;2024-03-07T07:48:43;1.40;99.90
52058;DHT22;38063;53.210;6.504;2024-03-07T07:51:09;1.30;99.90
52058;DHT22;38063;53.210;6.504;2024-03-07T07:53:35;1.40;99.90
52058;DHT22;38063;53.210;6.504;2024-03-07T07:56:00;1.40;99.90
52058;DHT22;38063;53.210;6.504;2024-03-07T07:58:26;1.40;99.90
52058;DHT22;38063;53.210;6.504;2024-03-07T08:00:52;1.50;99.90
52058;DHT22;38063;53.210;6.504;2024-03-07T08:03:18;1.50;99.90
52058;DHT22;38063;53.210;6.504;2024-03-07T08:05:44;1.50;99.90
52058;DHT22;38063;53.210;6.504;2024-03-07T08:08:12;1.40;99.90
52058;DHT22;38063;53.210;6.504;2024-03-07T08:10:42;1.50;99.90
52058;DHT22;38063;53.210;6.504;2024-03-07T08:13:07;1.50;99.90
52058;DHT22;38063;53.210;6.504;2024-03-07T08:15:36;1.60;99.90
52058;DHT22;38063;53.210;6.504;2024-03-07T08:18:02;1.60;99.90
52058;DHT22;38063;53.210;6.504;2024-03-07T08:20:34;1.60;99.90
52058;DHT22;38063;53.210;6.504;2024-03-07T08:23:00;1.70;99.90
52058;DHT22;38063;53.210;6.504;2024-03-07T08:25:27;2.60;99.90
52058;DHT22;38063;53.210;6.504;2024-03-07T08:27:55;1.70;99.90
52058;DHT22;38063;53.210;6.504;2024-03-07T08:30:22;1.80;99.90
52058;DHT22;38063;53.210;6.504;2024-03-07T08:32:53;1.80;99.90
52058;DHT22;38063;53.210;6.504;2024-03-07T08:35:19;2.20;99.90
52058;DHT22;38063;53.210;6.504;2024-03-07T08:37:46;1.80;99.90
52058;DHT22;38063;53.210;6.504;2024-03-07T08:40:15;2.00;99.90
52058;DHT22;38063;53.210;6.504;2024-03-07T08:42:51;1.90;99.90
52058;DHT22;38063;53.210;6.504;2024-03-07T08:45:19;1.90;99.90
52058;DHT22;38063;53.210;6.504;2024-03-07T08:47:49;2.00;99.90
52058;DHT22;38063;53.210;6.504;2024-03-07T08:50:16;1.90;99.90
52058;DHT22;38063;53.210;6.504;2024-03-07T08:52:47;2.30;99.90
52058;DHT22;38063;53.210;6.504;2024-03-07T08:55:24;2.20;99.90
52058;DHT22;38063;53.210;6.504;2024-03-07T08:57:53;2.10;99.90
52058;DHT22;38063;53.210;6.504;2024-03-07T09:00:19;2.10;99.90
52058;DHT22;38063;53.210;6.504;2024-03-07T09:02:59;2.00;99.90
52058;DHT22;38063;53.210;6.504;2024-03-07T09:05:25;2.10;99.90
52058;DHT22;38063;53.210;6.504;2024-03-07T09:07:52;2.10;99.90
52058;DHT22;38063;53.210;6.504;2024-03-07T09:10:19;2.10;99.90
52058;DHT22;38063;53.210;6.504;2024-03-07T09:12:45;2.00;99.90
52058;DHT22;38063;53.210;6.504;2024-03-07T09:15:11;2.00;99.90
52058;DHT22;38063;53.210;6.504;2024-03-07T09:17:38;2.10;99.90
52058;DHT22;38063;53.210;6.504;2024-03-07T09:20:07;2.20;99.90
52058;DHT22;38063;53.210;6.504;2024-03-07T09:22:39;2.10;99.90
52058;DHT22;38063;53.210;6.504;2024-03-07T09:25:05;3.20;99.90
52058;DHT22;38063;53.210;6.504;2024-03-07T09:27:31;2.10;99.90
52058;DHT22;38063;53.210;6.504;2024-03-07T09:29:57;2.20;99.90
52058;DHT22;38063;53.210;6.504;2024-03-07T09:32:23;2.20;99.90
52058;DHT22;38063;53.210;6.504;2024-03-07T09:34:49;2.20;99.90
52058;DHT22;38063;53.210;6.504;2024-03-07T09:37:15;2.30;99.90
52058;DHT22;38063;53.210;6.504;2024-03-07T09:39:41;2.80;99.90
52058;DHT22;38063;53.210;6.504;2024-03-07T09:42:09;2.30;99.90
52058;DHT22;38063;53.210;6.504;2024-03-07T09:44:38;2.50;99.90
52058;DHT22;38063;53.210;6.504;2024-03-07T09:47:05;2.30;99.90
52058;DHT22;38063;53.210;6.504;2024-03-07T09:49:33;2.30;99.90
52058;DHT22;38063;53.210;6.504;2024-03-07T09:52:04;2.30;99.90
52058;DHT22;38063;53.210;6.504;2024-03-07T09:54:34;2.30;99.90
52058;DHT22;38063;53.210;6.504;2024-03-07T09:57:01;2.40;99.90
52058;DHT22;38063;53.210;6.504;2024-03-07T09:59:30;3.10;99.90
52058;DHT22;38063;53.210;6.504;2024-03-07T10:01:59;2.40;99.90
52058;DHT22;38063;53.210;6.504;2024-03-07T10:04:48;2.40;99.90
52058;DHT22;38063;53.210;6.504;2024-03-07T10:07:18;2.50;99.90
52058;DHT22;38063;53.210;6.504;2024-03-07T10:09:44;2.60;99.90
52058;DHT22;38063;53.210;6.504;2024-03-07T10:12:11;2.50;99.90
52058;DHT22;38063;53.210;6.504;2024-03-07T10:14:59;2.60;99.90
52058;DHT22;38063;53.210;6.504;2024-03-07T10:17:28;2.60;99.90
52058;DHT22;38063;53.210;6.504;2024-03-07T10:19:55;2.60;99.90
52058;DHT22;38063;53.210;6.504;2024-03-07T10:22:21;2.50;99.90
52058;DHT22;38063;53.210;6.504;2024-03-07T10:24:52;2.70;99.90
52058;DHT22;38063;53.210;6.504;2024-03-07T10:27:20;2.70;99.90
52058;DHT22;38063;53.210;6.504;2024-03-07T10:29:47;2.80;99.90
52058;DHT22;38063;53.210;6.504;2024-03-07T10:32:19;2.80;99.90
52058;DHT22;38063;53.210;6.504;2024-03-07T10:34:45;3.00;99.90
52058;DHT22;38063;53.210;6.504;2024-03-07T10:37:13;2.80;99.90
52058;DHT22;38063;53.210;6.504;2024-03-07T10:39:51;2.90;99.90
52058;DHT22;38063;53.210;6.504;2024-03-07T10:42:19;2.90;99.90
52058;DHT22;38063;53.210;6.504;2024-03-07T10:44:46;3.00;99.90
52058;DHT22;38063;53.210;6.504;2024-03-07T10:47:19;3.00;99.90
52058;DHT22;38063;53.210;6.504;2024-03-07T11:01:02;3.20;99.90
52058;DHT22;38063;53.210;6.504;2024-03-07T11:03:35;3.30;99.90
52058;DHT22;38063;53.210;6.504;2024-03-07T11:06:12;3.50;99.90
52058;DHT22;38063;53.210;6.504;2024-03-07T11:08:39;3.50;99.90
52058;DHT22;38063;53.210;6.504;2024-03-07T11:11:06;3.50;99.90
52058;DHT22;38063;53.210;6.504;2024-03-07T11:13:33;3.30;99.90
52058;DHT22;38063;53.210;6.504;2024-03-07T11:16:00;3.40;99.90
52058;DHT22;38063;53.210;6.504;2024-03-07T11:18:26;3.50;99.90
52058;DHT22;38063;53.210;6.504;2024-03-07T11:20:52;3.60;99.90
52058;DHT22;38063;53.210;6.504;2024-03-07T11:26:10;3.80;99.90
52058;DHT22;38063;53.210;6.504;2024-03-07T11:28:41;3.80;99.90
52058;DHT22;38063;53.210;6.504;2024-03-07T11:31:12;3.90;99.90
52058;DHT22;38063;53.210;6.504;2024-03-07T11:33:39;3.80;99.90
52058;DHT22;38063;53.210;6.504;2024-03-07T11:36:07;3.90;99.90
52058;DHT22;38063;53.210;6.504;2024-03-07T11:38:33;3.90;99.90
52058;DHT22;38063;53.210;6.504;2024-03-07T11:41:00;3.90;99.90
52058;DHT22;38063;53.210;6.504;2024-03-07T11:43:31;4.10;99.90
52058;DHT22;38063;53.210;6.504;2024-03-07T11:45:59;4.30;99.90
52058;DHT22;38063;53.210;6.504;2024-03-07T11:48:25;4.40;99.90
52058;DHT22;38063;53.210;6.504;2024-03-07T11:50:50;4.40;99.90
52058;DHT22;38063;53.210;6.504;2024-03-07T11:53:16;4.50;99.90
52058;DHT22;38063;53.210;6.504;2024-03-07T11:55:43;4.60;99.90
52058;DHT22;38063;53.210;6.504;2024-03-07T11:58:16;4.70;99.90
52058;DHT22;38063;53.210;6.504;2024-03-07T12:00:44;4.70;99.90
52058;DHT22;38063;53.210;6.504;2024-03-07T12:03:16;4.70;99.90
52058;DHT22;38063;53.210;6.504;2024-03-07T12:05:50;4.80;99.90
52058;DHT22;38063;53.210;6.504;2024-03-07T12:08:19;4.80;99.90
52058;DHT22;38063;53.210;6.504;2024-03-07T12:10:48;4.90;99.90
52058;DHT22;38063;53.210;6.504;2024-03-07T12:13:19;5.10;99.90
52058;DHT22;38063;53.210;6.504;2024-03-07T12:15:45;5.20;99.90
52058;DHT22;38063;53.210;6.504;2024-03-07T12:18:12;5.20;99.90
52058;DHT22;38063;53.210;6.504;2024-03-07T12:20:43;5.40;99.90
52058;DHT22;38063;53.210;6.504;2024-03-07T12:23:12;5.90;99.90
52058;DHT22;38063;53.210;6.504;2024-03-07T12:25:39;5.90;99.90
52058;DHT22;38063;53.210;6.504;2024-03-07T12:28:10;6.10;99.90
52058;DHT22;38063;53.210;6.504;2024-03-07T12:30:50;6.30;99.90
52058;DHT22;38063;53.210;6.504;2024-03-07T12:33:18;6.60;99.90
52058;DHT22;38063;53.210;6.504;2024-03-07T12:35:49;6.90;99.90
52058;DHT22;38063;53.210;6.504;2024-03-07T12:38:20;7.00;99.90
52058;DHT22;38063;53.210;6.504;2024-03-07T12:41:02;7.20;99.90
52058;DHT22;38063;53.210;6.504;2024-03-07T12:43:31;7.20;99.90
52058;DHT22;38063;53.210;6.504;2024-03-07T12:45:58;7.10;99.90
52058;DHT22;38063;53.210;6.504;2024-03-07T12:48:24;7.00;99.90
52058;DHT22;38063;53.210;6.504;2024-03-07T12:50:51;6.90;99.90
52058;DHT22;38063;53.210;6.504;2024-03-07T12:53:21;6.80;99.90
52058;DHT22;38063;53.210;6.504;2024-03-07T12:55:48;6.70;99.90
52058;DHT22;38063;53.210;6.504;2024-03-07T12:58:13;6.60;99.90
52058;DHT22;38063;53.210;6.504;2024-03-07T13:00:41;6.50;99.90
52058;DHT22;38063;53.210;6.504;2024-03-07T13:03:08;6.50;99.90
52058;DHT22;38063;53.210;6.504;2024-03-07T13:05:38;6.40;99.90
52058;DHT22;38063;53.210;6.504;2024-03-07T13:08:07;6.30;99.90
52058;DHT22;38063;53.210;6.504;2024-03-07T13:10:39;6.10;99.90
52058;DHT22;38063;53.210;6.504;2024-03-07T13:13:05;6.10;99.90
52058;DHT22;38063;53.210;6.504;2024-03-07T13:15:31;6.00;99.90
52058;DHT22;38063;53.210;6.504;2024-03-07T13:17:57;5.90;99.90
52058;DHT22;38063;53.210;6.504;2024-03-07T13:20:23;5.90;99.90
52058;DHT22;38063;53.210;6.504;2024-03-07T13:22:52;5.90;99.90
52058;DHT22;38063;53.210;6.504;2024-03-07T13:25:23;5.90;99.90
52058;DHT22;38063;53.210;6.504;2024-03-07T13:27:55;5.90;99.90
52058;DHT22;38063;53.210;6.504;2024-03-07T13:30:23;5.90;99.90
52058;DHT22;38063;53.210;6.504;2024-03-07T13:32:53;6.00;99.90
52058;DHT22;38063;53.210;6.504;2024-03-07T13:35:20;6.00;99.90
52058;DHT22;38063;53.210;6.504;2024-03-07T13:37:47;6.00;99.90
52058;DHT22;38063;53.210;6.504;2024-03-07T13:40:13;6.00;99.90
52058;DHT22;38063;53.210;6.504;2024-03-07T13:42:52;6.00;99.90
52058;DHT22;38063;53.210;6.504;2024-03-07T13:45:31;6.00;99.90
52058;DHT22;38063;53.210;6.504;2024-03-07T13:47:59;6.00;99.90
52058;DHT22;38063;53.210;6.504;2024-03-07T13:50:27;6.00;99.90
52058;DHT22;38063;53.210;6.504;2024-03-07T13:52:56;6.00;99.90
52058;DHT22;38063;53.210;6.504;2024-03-07T14:17:22;6.10;99.90
52058;DHT22;38063;53.210;6.504;2024-03-07T14:29:18;6.20;99.90
52058;DHT22;38063;53.210;6.504;2024-03-07T14:31:46;6.20;99.90
52058;DHT22;38063;53.210;6.504;2024-03-07T14:37:11;6.30;99.90
52058;DHT22;38063;53.210;6.504;2024-03-07T14:39:37;6.30;99.90
52058;DHT22;38063;53.210;6.504;2024-03-07T14:42:06;6.30;99.90
52058;DHT22;38063;53.210;6.504;2024-03-07T14:44:37;6.30;99.90
52058;DHT22;38063;53.210;6.504;2024-03-07T14:47:06;6.30;99.90
52058;DHT22;38063;53.210;6.504;2024-03-07T14:49:33;6.40;99.90
52058;DHT22;38063;53.210;6.504;2024-03-07T14:51:59;6.40;99.90
52058;DHT22;38063;53.210;6.504;2024-03-07T14:54:26;6.40;99.90
52058;DHT22;38063;53.210;6.504;2024-03-07T14:56:52;6.40;99.90
52058;DHT22;38063;53.210;6.504;2024-03-07T14:59:18;6.40;99.90
52058;DHT22;38063;53.210;6.504;2024-03-07T15:01:44;6.40;99.90
52058;DHT22;38063;53.210;6.504;2024-03-07T15:04:10;6.40;99.90
52058;DHT22;38063;53.210;6.504;2024-03-07T15:06:41;6.40;99.90
52058;DHT22;38063;53.210;6.504;2024-03-07T15:09:07;6.40;99.90
52058;DHT22;38063;53.210;6.504;2024-03-07T15:11:38;6.40;99.90
52058;DHT22;38063;53.210;6.504;2024-03-07T15:14:06;6.40;99.90
52058;DHT22;38063;53.210;6.504;2024-03-07T15:16:35;6.40;99.90
52058;DHT22;38063;53.210;6.504;2024-03-07T15:19:04;6.40;99.90
52058;DHT22;38063;53.210;6.504;2024-03-07T15:21:29;6.50;99.90
52058;DHT22;38063;53.210;6.504;2024-03-07T15:23:56;6.50;99.90
52058;DHT22;38063;53.210;6.504;2024-03-07T15:26:22;6.50;99.90
52058;DHT22;38063;53.210;6.504;2024-03-07T15:28:52;6.60;99.90
52058;DHT22;38063;53.210;6.504;2024-03-07T15:31:20;6.60;99.90
52058;DHT22;38063;53.210;6.504;2024-03-07T15:33:47;6.60;99.90
52058;DHT22;38063;53.210;6.504;2024-03-07T15:36:13;6.60;99.90
52058;DHT22;38063;53.210;6.504;2024-03-07T15:38:39;6.60;99.90
52058;DHT22;38063;53.210;6.504;2024-03-07T15:41:05;6.60;99.90
52058;DHT22;38063;53.210;6.504;2024-03-07T15:43:34;6.60;99.90
52058;DHT22;38063;53.210;6.504;2024-03-07T15:45:59;6.50;99.90
52058;DHT22;38063;53.210;6.504;2024-03-07T15:48:26;6.50;99.90
52058;DHT22;38063;53.210;6.504;2024-03-07T15:50:52;6.50;99.90
52058;DHT22;38063;53.210;6.504;2024-03-07T15:53:18;6.40;99.90
52058;DHT22;38063;53.210;6.504;2024-03-07T15:55:45;6.40;99.90
52058;DHT22;38063;53.210;6.504;2024-03-07T15:58:10;6.40;99.90
52058;DHT22;38063;53.210;6.504;2024-03-07T16:00:37;6.40;99.90
52058;DHT22;38063;53.210;6.504;2024-03-07T16:03:07;6.40;99.90
52058;DHT22;38063;53.210;6.504;2024-03-07T16:05:36;6.40;99.90
52058;DHT22;38063;53.210;6.504;2024-03-07T16:08:05;6.40;99.90
52058;DHT22;38063;53.210;6.504;2024-03-07T16:10:33;6.30;99.90
52058;DHT22;38063;53.210;6.504;2024-03-07T16:13:02;6.30;99.90
52058;DHT22;38063;53.210;6.504;2024-03-07T16:15:28;6.30;99.90
52058;DHT22;38063;53.210;6.504;2024-03-07T16:17:55;6.30;99.90
52058;DHT22;38063;53.210;6.504;2024-03-07T16:20:25;6.40;99.90
52058;DHT22;38063;53.210;6.504;2024-03-07T16:22:50;6.40;99.90
52058;DHT22;38063;53.210;6.504;2024-03-07T16:25:19;6.40;99.90
52058;DHT22;38063;53.210;6.504;2024-03-07T16:27:46;6.40;99.90
52058;DHT22;38063;53.210;6.504;2024-03-07T16:30:17;6.40;99.90
52058;DHT22;38063;53.210;6.504;2024-03-07T16:32:45;6.40;99.90
52058;DHT22;38063;53.210;6.504;2024-03-07T16:35:18;6.40;99.90
52058;DHT22;38063;53.210;6.504;2024-03-07T16:37:47;6.30;99.90